createdAt,value
2022-10-23T00:01:39.561Z,39.10
2022-10-23T00:04:10.842Z,47.90
2022-10-23T00:06:37.712Z,41.10
2022-10-23T00:09:06.105Z,49.10
2022-10-23T00:11:34.414Z,42.90
2022-10-23T00:14:02.816Z,42.70
2022-10-23T00:16:30.466Z,43.80
2022-10-23T00:18:58.025Z,44.40
2022-10-23T00:21:25.547Z,45.80
2022-10-23T00:23:52.685Z,46.10
2022-10-23T00:26:19.927Z,47.40
2022-10-23T00:28:50.218Z,47.60
2022-10-23T00:31:18.171Z,46.30
2022-10-23T00:33:45.083Z,46.30
2022-10-23T00:36:13.992Z,43.50
2022-10-23T00:38:45.530Z,41.00
2022-10-23T00:41:20.969Z,42.70
2022-10-23T00:44:05.541Z,46.30
2022-10-23T00:46:33.634Z,45.90
2022-10-23T00:49:01.382Z,45.00
2022-10-23T00:51:33.622Z,45.50
2022-10-23T00:54:22.997Z,46.40
2022-10-23T00:56:49.974Z,43.10
2022-10-23T00:59:16.842Z,42.10
2022-10-23T01:01:43.823Z,44.60
2022-10-23T01:04:11.481Z,49.50
2022-10-23T01:06:43.518Z,42.80
2022-10-23T01:09:25.924Z,44.30
2022-10-23T01:12:01.099Z,45.40
2022-10-23T01:14:43.008Z,47.70
2022-10-23T01:17:15.647Z,44.20
2022-10-23T01:19:59.668Z,42.90
2022-10-23T01:22:51.681Z,41.00
2022-10-23T01:25:29.663Z,35.60
2022-10-23T01:28:03.022Z,33.20
2022-10-23T01:30:33.737Z,45.10
2022-10-23T01:33:13.156Z,35.00
2022-10-23T01:35:52.763Z,37.40
2022-10-23T01:38:29.103Z,34.80
2022-10-23T01:41:07.431Z,39.00
2022-10-23T01:43:44.211Z,37.50
2022-10-23T01:46:15.361Z,39.10
2022-10-23T01:48:48.780Z,42.30
2022-10-23T01:51:17.593Z,35.00
2022-10-23T01:53:48.551Z,34.60
2022-10-23T01:56:21.862Z,36.50
2022-10-23T01:58:52.618Z,34.70
2022-10-23T02:01:24.502Z,34.50
2022-10-23T02:03:53.774Z,32.90
2022-10-23T02:06:20.535Z,32.00
2022-10-23T02:08:47.593Z,29.90
2022-10-23T02:11:18.618Z,33.90
2022-10-23T02:13:53.684Z,24.80
2022-10-23T02:16:41.436Z,33.10
2022-10-23T02:19:21.655Z,28.70
2022-10-23T02:22:03.750Z,29.50
2022-10-23T02:24:41.604Z,27.70
2022-10-23T02:27:14.342Z,26.70
2022-10-23T02:29:47.074Z,30.70
2022-10-23T02:32:17.925Z,29.70
2022-10-23T02:34:48.092Z,27.70
2022-10-23T02:37:15.956Z,33.10
2022-10-23T02:39:42.912Z,30.80
2022-10-23T02:42:29.361Z,36.40
2022-10-23T02:45:09.270Z,37.30
2022-10-23T02:47:51.661Z,38.30
2022-10-23T02:50:33.210Z,33.70
2022-10-23T02:53:28.129Z,32.40
2022-10-23T02:56:13.561Z,34.00
2022-10-23T02:59:03.370Z,32.30
2022-10-23T03:01:43.714Z,38.20
2022-10-23T03:04:12.557Z,37.90
2022-10-23T03:06:39.570Z,36.70
2022-10-23T03:09:09.262Z,36.70
2022-10-23T03:11:36.558Z,45.30
2022-10-23T03:14:03.358Z,41.30
2022-10-23T03:16:31.476Z,47.50
2022-10-23T03:18:58.263Z,39.00
2022-10-23T03:21:25.286Z,44.00
2022-10-23T03:23:53.021Z,46.40
2022-10-23T03:26:26.411Z,39.90
2022-10-23T03:28:53.583Z,49.30
2022-10-23T03:31:21.384Z,48.20
2022-10-23T03:33:49.635Z,46.30
2022-10-23T03:36:16.603Z,46.90
2022-10-23T03:38:44.202Z,33.90
2022-10-23T03:41:10.976Z,46.70
2022-10-23T03:43:37.723Z,40.50
2022-10-23T03:46:09.693Z,39.30
2022-10-23T03:48:38.455Z,41.40
2022-10-23T03:51:06.209Z,42.80
2022-10-23T03:53:32.947Z,35.90
2022-10-23T03:56:01.731Z,40.60
2022-10-23T03:58:28.702Z,41.90
2022-10-23T04:00:55.920Z,39.50
2022-10-23T04:03:23.319Z,37.80
2022-10-23T04:05:52.232Z,37.20
2022-10-23T04:08:21.487Z,37.20
2022-10-23T04:10:51.151Z,35.50
2022-10-23T04:13:20.870Z,35.70
2022-10-23T04:15:50.242Z,36.60
2022-10-23T04:18:17.589Z,33.90
2022-10-23T04:20:47.091Z,35.20
2022-10-23T04:23:13.926Z,33.20
2022-10-23T04:25:42.015Z,28.20
2022-10-23T04:28:08.914Z,31.30
2022-10-23T04:30:38.761Z,30.20
2022-10-23T04:33:05.902Z,28.30
2022-10-23T04:35:33.553Z,30.20
2022-10-23T04:38:00.274Z,32.20
2022-10-23T04:40:26.991Z,30.40
2022-10-23T04:42:54.676Z,29.70
2022-10-23T04:45:21.726Z,31.00
2022-10-23T04:47:48.505Z,23.60
2022-10-23T04:50:15.777Z,28.80
2022-10-23T04:52:58.289Z,30.20
2022-10-23T04:55:40.063Z,27.70
2022-10-23T04:58:12.026Z,24.90
2022-10-23T05:00:38.741Z,25.60
2022-10-23T05:03:05.613Z,29.80
2022-10-23T05:05:39.331Z,20.50
2022-10-23T05:08:24.772Z,26.30
2022-10-23T05:11:06.803Z,29.40
2022-10-23T05:13:38.574Z,20.90
2022-10-23T05:16:05.673Z,26.60
2022-10-23T05:18:39.205Z,26.50
2022-10-23T05:21:13.531Z,24.80
2022-10-23T05:23:42.950Z,26.70
2022-10-23T05:26:09.794Z,26.30
2022-10-23T05:28:37.938Z,28.30
2022-10-23T05:31:06.159Z,28.00
2022-10-23T05:33:36.607Z,27.30
2022-10-23T05:36:03.829Z,26.70
2022-10-23T05:38:34.845Z,27.00
2022-10-23T05:41:06.494Z,28.50
2022-10-23T05:43:33.242Z,32.00
2022-10-23T05:46:09.411Z,26.10
2022-10-23T05:48:52.499Z,25.80
2022-10-23T05:51:37.007Z,28.10
2022-10-23T05:54:21.786Z,29.60
2022-10-23T05:56:58.523Z,31.70
2022-10-23T05:59:32.476Z,27.70
2022-10-23T06:02:12.759Z,25.50
2022-10-23T06:04:47.821Z,34.20
2022-10-23T06:07:33.716Z,32.90
2022-10-23T06:10:05.538Z,29.10
2022-10-23T06:12:33.943Z,36.20
2022-10-23T06:15:00.998Z,35.90
2022-10-23T06:17:42.789Z,42.70
2022-10-23T06:20:10.206Z,36.30
2022-10-23T06:22:39.166Z,36.00
2022-10-23T06:25:18.772Z,34.40
2022-10-23T06:27:45.848Z,38.20
2022-10-23T06:30:13.404Z,30.20
2022-10-23T06:32:40.501Z,46.80
2022-10-23T06:35:11.506Z,34.10
2022-10-23T06:37:38.981Z,35.30
2022-10-23T06:40:10.731Z,35.70
2022-10-23T06:42:50.888Z,36.30
2022-10-23T06:45:34.209Z,36.50
2022-10-23T06:48:21.023Z,40.70
2022-10-23T06:50:47.701Z,35.60
2022-10-23T06:53:20.095Z,29.80
2022-10-23T06:55:55.338Z,41.30
2022-10-23T06:58:22.784Z,40.30
2022-10-23T07:01:04.405Z,41.80
2022-10-23T07:03:31.984Z,42.40
2022-10-23T07:06:02.041Z,36.90
2022-10-23T07:08:29.570Z,43.40
2022-10-23T07:10:56.936Z,44.40
2022-10-23T07:13:25.244Z,35.50
2022-10-23T07:15:58.243Z,33.90
2022-10-23T07:18:25.964Z,27.80
2022-10-23T07:21:08.659Z,31.50
2022-10-23T07:23:37.177Z,33.40
2022-10-23T07:26:06.389Z,30.20
2022-10-23T07:28:34.482Z,27.40
2022-10-23T07:31:02.235Z,27.50
2022-10-23T07:33:50.338Z,28.50
2022-10-23T07:36:19.515Z,28.10
2022-10-23T07:38:46.832Z,22.20
2022-10-23T07:41:13.658Z,22.20
2022-10-23T07:43:40.814Z,22.70
2022-10-23T07:46:09.956Z,22.00
2022-10-23T07:48:40.068Z,26.70
2022-10-23T07:51:13.419Z,28.20
2022-10-23T07:53:44.749Z,25.30
2022-10-23T07:56:26.369Z,28.50
2022-10-23T07:59:13.630Z,25.00
2022-10-23T08:01:43.442Z,26.80
2022-10-23T08:04:11.203Z,27.80
2022-10-23T08:09:11.261Z,30.30
2022-10-23T08:11:38.857Z,28.30
2022-10-23T08:14:08.256Z,24.70
2022-10-23T08:16:38.339Z,31.20
2022-10-23T08:19:07.869Z,31.50
2022-10-23T08:21:36.197Z,31.10
2022-10-23T08:24:03.431Z,30.10
2022-10-23T08:26:31.052Z,33.30
2022-10-23T08:28:59.636Z,27.60
2022-10-23T08:31:27.261Z,31.50
2022-10-23T08:34:09.475Z,27.60
2022-10-23T08:36:39.435Z,29.90
2022-10-23T08:39:06.841Z,28.40
2022-10-23T08:41:37.762Z,22.20
2022-10-23T08:44:24.991Z,28.60
2022-10-23T08:47:02.038Z,25.80
2022-10-23T08:49:51.820Z,25.40
2022-10-23T08:52:30.243Z,23.60
2022-10-23T08:55:12.649Z,26.90
2022-10-23T08:57:47.861Z,24.20
2022-10-23T09:00:16.867Z,19.50
2022-10-23T09:02:47.876Z,23.30
2022-10-23T09:05:19.493Z,19.20
2022-10-23T09:08:17.544Z,23.20
2022-10-23T09:11:15.669Z,26.70
2022-10-23T09:13:49.459Z,21.00
2022-10-23T09:16:44.697Z,22.10
2022-10-23T09:19:16.175Z,18.00
2022-10-23T09:21:47.354Z,17.40
2022-10-23T09:24:18.019Z,23.20
2022-10-23T09:26:48.450Z,22.10
2022-10-23T09:29:36.226Z,20.30
2022-10-23T09:32:06.847Z,21.50
2022-10-23T09:34:35.178Z,22.60
2022-10-23T09:37:17.745Z,16.30
2022-10-23T09:39:47.000Z,18.50
2022-10-23T09:42:22.419Z,17.70
2022-10-23T09:44:52.258Z,18.70
2022-10-23T09:47:21.329Z,13.40
2022-10-23T09:49:51.604Z,12.90
2022-10-23T09:52:18.332Z,16.20
2022-10-23T09:54:48.613Z,17.60
2022-10-23T09:57:32.020Z,16.90
2022-10-23T10:00:04.172Z,20.40
2022-10-23T10:02:38.975Z,22.00
2022-10-23T10:05:22.370Z,17.70
2022-10-23T10:08:12.241Z,23.10
2022-10-23T10:10:45.395Z,16.70
2022-10-23T10:13:38.460Z,17.10
2022-10-23T10:16:20.787Z,18.30
2022-10-23T10:19:17.341Z,15.00
2022-10-23T10:22:09.057Z,14.70
2022-10-23T10:24:52.291Z,26.90
2022-10-23T10:27:46.411Z,21.60
2022-10-23T10:30:18.464Z,20.10
2022-10-23T10:32:52.563Z,18.00
2022-10-23T10:35:23.398Z,20.80
2022-10-23T10:37:50.618Z,17.10
2022-10-23T10:40:35.444Z,16.90
2022-10-23T10:43:24.172Z,15.10
2022-10-23T10:46:06.106Z,12.70
2022-10-23T10:48:48.623Z,13.10
2022-10-23T10:51:50.719Z,12.80
2022-10-23T10:54:48.834Z,15.20
2022-10-23T10:57:34.105Z,17.20
2022-10-23T11:00:07.221Z,16.90
2022-10-23T11:02:45.065Z,16.70
2022-10-23T11:05:19.209Z,17.40
2022-10-23T11:08:10.116Z,17.00
2022-10-23T11:10:41.183Z,17.90
2022-10-23T11:13:24.827Z,16.30
2022-10-23T11:15:54.989Z,15.40
2022-10-23T11:18:28.582Z,16.00
2022-10-23T11:23:42.583Z,10.80
2022-10-23T11:26:10.407Z,9.60
2022-10-23T11:28:37.121Z,10.00
2022-10-23T11:31:21.790Z,8.80
2022-10-23T11:34:04.216Z,8.70
2022-10-23T11:36:55.030Z,9.00
2022-10-23T11:39:26.881Z,6.40
2022-10-23T11:42:12.641Z,7.80
2022-10-23T11:44:43.543Z,10.10
2022-10-23T11:47:32.025Z,7.00
2022-10-23T11:50:09.345Z,6.10
2022-10-23T11:52:45.615Z,7.50
2022-10-23T11:55:21.190Z,6.70
2022-10-23T11:58:14.585Z,6.60
2022-10-23T12:00:54.327Z,7.30
2022-10-23T12:03:29.071Z,5.50
2022-10-23T12:06:01.940Z,5.40
2022-10-23T12:08:32.690Z,6.40
2022-10-23T12:11:02.141Z,6.40
2022-10-23T12:13:32.768Z,7.80
2022-10-23T12:16:00.964Z,7.20
2022-10-23T12:18:28.452Z,5.60
2022-10-23T12:20:58.660Z,5.60
2022-10-23T12:23:51.073Z,7.00
2022-10-23T12:26:22.945Z,6.70
2022-10-23T12:29:17.364Z,6.10
2022-10-23T12:32:08.229Z,6.10
2022-10-23T12:35:08.100Z,5.20
2022-10-23T12:37:58.138Z,4.60
2022-10-23T12:40:29.951Z,6.20
2022-10-23T12:42:59.526Z,4.70
2022-10-23T12:45:30.007Z,4.90
2022-10-23T12:47:56.756Z,5.40
2022-10-23T12:50:25.045Z,7.20
2022-10-23T12:52:54.038Z,6.30
2022-10-23T12:55:21.940Z,6.70
2022-10-23T12:57:48.727Z,3.70
2022-10-23T13:00:19.934Z,4.50
2022-10-23T13:02:47.005Z,4.40
2022-10-23T13:05:20.109Z,4.50
2022-10-23T13:07:48.721Z,3.70
2022-10-23T13:10:20.744Z,4.10
2022-10-23T13:13:05.020Z,4.90
2022-10-23T13:15:40.251Z,4.60
2022-10-23T13:18:08.553Z,7.10
2022-10-23T13:20:41.131Z,4.30
2022-10-23T13:23:07.906Z,5.30
2022-10-23T13:25:36.796Z,5.50
2022-10-23T13:28:15.011Z,6.30
2022-10-23T13:30:46.550Z,7.80
2022-10-23T13:33:15.672Z,5.20
2022-10-23T13:35:42.439Z,7.90
2022-10-23T13:38:11.948Z,8.00
2022-10-23T13:40:38.711Z,9.50
2022-10-23T13:43:14.563Z,6.70
2022-10-23T13:45:41.605Z,6.00
2022-10-23T13:48:13.892Z,8.10
2022-10-23T13:50:40.848Z,6.30
2022-10-23T13:53:12.563Z,6.30
2022-10-23T13:55:42.885Z,8.80
2022-10-23T13:58:10.599Z,6.50
2022-10-23T14:00:38.936Z,5.30
2022-10-23T14:03:05.782Z,6.90
2022-10-23T14:05:32.493Z,5.80
2022-10-23T14:07:59.323Z,8.10
2022-10-23T14:10:27.752Z,5.70
2022-10-23T14:12:55.114Z,9.40
2022-10-23T14:15:22.360Z,6.50
2022-10-23T14:17:49.207Z,7.00
2022-10-23T14:20:19.006Z,5.20
2022-10-23T14:22:46.518Z,6.80
2022-10-23T14:25:13.502Z,7.20
2022-10-23T14:27:40.342Z,6.90
2022-10-23T14:30:08.130Z,5.40
2022-10-23T14:32:34.975Z,6.60
2022-10-23T14:35:03.938Z,7.60
2022-10-23T14:37:31.537Z,6.50
2022-10-23T14:39:58.988Z,7.50
2022-10-23T14:42:30.528Z,7.60
2022-10-23T14:45:02.844Z,6.30
2022-10-23T14:47:31.701Z,5.20
2022-10-23T14:49:58.408Z,7.20
2022-10-23T14:52:25.205Z,5.10
2022-10-23T14:54:53.604Z,6.60
2022-10-23T14:57:22.163Z,6.20
2022-10-23T14:59:49.767Z,4.50
2022-10-23T15:02:17.607Z,3.80
2022-10-23T15:04:44.540Z,6.50
2022-10-23T15:07:11.496Z,6.60
2022-10-23T15:09:39.735Z,5.40
2022-10-23T15:12:07.879Z,8.60
2022-10-23T15:14:35.215Z,4.70
2022-10-23T15:17:03.026Z,6.60
2022-10-23T15:19:30.080Z,5.10
2022-10-23T15:21:57.077Z,5.70
2022-10-23T15:24:23.966Z,7.80
2022-10-23T15:26:51.811Z,6.40
2022-10-23T15:29:19.716Z,5.50
2022-10-23T15:31:53.266Z,7.20
2022-10-23T15:34:23.789Z,9.30
2022-10-23T15:36:52.608Z,7.70
2022-10-23T15:39:22.867Z,8.20
2022-10-23T15:41:53.580Z,5.50
2022-10-23T15:44:22.360Z,6.10
2022-10-23T15:46:49.888Z,7.30
2022-10-23T15:49:17.579Z,5.30
2022-10-23T15:51:44.402Z,7.10
2022-10-23T15:54:16.647Z,6.70
2022-10-23T15:56:44.728Z,5.70
2022-10-23T15:59:11.554Z,5.70
2022-10-23T16:01:38.574Z,8.20
2022-10-23T16:04:05.840Z,5.40
2022-10-23T16:06:32.915Z,7.20
2022-10-23T16:08:59.706Z,9.80
2022-10-23T16:11:29.823Z,4.80
2022-10-23T16:13:58.473Z,7.90
2022-10-23T16:16:27.053Z,5.80
2022-10-23T16:18:53.927Z,8.10
2022-10-23T16:21:24.828Z,16.10
2022-10-23T16:23:53.268Z,59.20
2022-10-23T16:26:21.070Z,305.10
2022-10-23T16:28:47.962Z,42.50
2022-10-23T16:31:20.057Z,17.80
2022-10-23T16:33:48.424Z,11.50
2022-10-23T16:36:15.750Z,8.10
2022-10-23T16:38:57.999Z,7.00
2022-10-23T16:41:45.246Z,10.00
2022-10-23T16:44:18.398Z,48.90
2022-10-23T16:47:00.718Z,17.60
2022-10-23T16:49:29.799Z,15.60
2022-10-23T16:51:56.647Z,19.20
2022-10-23T16:54:23.376Z,22.10
2022-10-23T16:56:50.254Z,40.30
2022-10-23T16:59:17.059Z,23.90
2022-10-23T17:01:44.017Z,26.20
2022-10-23T17:04:10.858Z,20.70
2022-10-23T17:06:37.669Z,20.40
2022-10-23T17:09:06.355Z,21.90
2022-10-23T17:11:38.408Z,25.10
2022-10-23T17:14:07.858Z,22.20
2022-10-23T17:16:40.269Z,22.30
2022-10-23T17:19:20.851Z,25.00
2022-10-23T17:21:57.952Z,25.10
2022-10-23T17:24:25.075Z,21.80
2022-10-23T17:26:52.012Z,25.40
2022-10-23T17:29:23.318Z,25.70
2022-10-23T17:31:53.435Z,24.30
2022-10-23T17:34:22.620Z,27.90
2022-10-23T17:36:52.890Z,32.30
2022-10-23T17:39:23.431Z,44.40
2022-10-23T17:41:50.764Z,216.30
2022-10-23T17:44:20.516Z,828.60
2022-10-23T17:46:53.262Z,797.60
2022-10-23T17:49:21.057Z,59.20
2022-10-23T17:51:57.734Z,36.90
2022-10-23T17:54:27.091Z,51.50
2022-10-23T17:56:53.974Z,50.80
2022-10-23T17:59:22.089Z,50.30
2022-10-23T18:01:49.609Z,42.80
2022-10-23T18:04:19.124Z,44.00
2022-10-23T18:06:49.461Z,37.10
2022-10-23T18:09:17.030Z,40.60
2022-10-23T18:11:48.118Z,37.90
2022-10-23T18:14:17.161Z,33.90
2022-10-23T18:16:45.841Z,32.00
2022-10-23T18:19:14.035Z,38.60
2022-10-23T18:21:41.563Z,31.20
2022-10-23T18:24:08.688Z,29.50
2022-10-23T18:26:37.738Z,67.40
2022-10-23T18:29:07.863Z,36.40
2022-10-23T18:31:37.466Z,189.70
2022-10-23T18:34:14.681Z,183.60
2022-10-23T18:36:42.092Z,139.10
2022-10-23T18:39:14.403Z,46.40
2022-10-23T18:41:45.122Z,92.10
2022-10-23T18:44:17.286Z,38.70
2022-10-23T18:46:45.070Z,34.90
2022-10-23T18:49:11.918Z,59.60
2022-10-23T18:51:39.822Z,62.70
2022-10-23T18:54:25.141Z,44.40
2022-10-23T18:56:52.056Z,34.60
2022-10-23T18:59:20.929Z,33.50
2022-10-23T19:01:48.693Z,33.60
2022-10-23T19:04:16.136Z,32.80
2022-10-23T19:06:43.005Z,29.60
2022-10-23T19:09:13.757Z,30.20
2022-10-23T19:11:42.112Z,35.30
2022-10-23T19:14:09.436Z,31.90
2022-10-23T19:16:43.779Z,34.80
2022-10-23T19:19:13.571Z,32.80
2022-10-23T19:21:41.741Z,33.30
2022-10-23T19:24:19.736Z,31.00
2022-10-23T19:26:49.965Z,33.70
2022-10-23T19:29:34.919Z,35.30
2022-10-23T19:32:07.192Z,40.10
2022-10-23T19:34:34.286Z,45.00
2022-10-23T19:37:01.459Z,40.40
2022-10-23T19:39:28.439Z,41.10
2022-10-23T19:41:55.357Z,51.40
2022-10-23T19:44:22.265Z,53.10
2022-10-23T19:46:49.168Z,49.30
2022-10-23T19:49:33.384Z,48.60
2022-10-23T19:52:00.142Z,59.30
2022-10-23T19:54:27.153Z,56.70
2022-10-23T19:56:53.867Z,54.70
2022-10-23T19:59:20.704Z,54.60
2022-10-23T20:01:49.034Z,75.60
2022-10-23T20:04:18.391Z,77.00
2022-10-23T20:06:46.180Z,74.30
2022-10-23T20:09:13.188Z,77.50
2022-10-23T20:11:40.855Z,77.80
2022-10-23T20:14:08.340Z,71.30
2022-10-23T20:16:37.500Z,72.20
2022-10-23T20:19:07.305Z,73.70
2022-10-23T20:21:36.236Z,66.50
2022-10-23T20:24:02.989Z,79.50
2022-10-23T20:26:30.590Z,70.20
2022-10-23T20:28:57.705Z,69.20
2022-10-23T20:31:26.215Z,67.60
2022-10-23T20:33:53.400Z,67.70
2022-10-23T20:36:37.941Z,61.70
2022-10-23T20:39:10.101Z,49.30
2022-10-23T20:41:37.578Z,43.80
2022-10-23T20:44:06.882Z,44.00
2022-10-23T20:46:34.038Z,47.40
2022-10-23T20:49:00.849Z,56.30
2022-10-23T20:51:27.836Z,45.60
2022-10-23T20:53:54.944Z,53.40
2022-10-23T20:56:30.173Z,49.40
2022-10-23T20:59:00.110Z,51.60
2022-10-23T21:01:28.329Z,36.20
2022-10-23T21:03:57.224Z,41.20
2022-10-23T21:06:25.479Z,57.80
2022-10-23T21:09:02.438Z,58.10
2022-10-23T21:11:29.408Z,62.20
2022-10-23T21:13:57.408Z,53.80
2022-10-23T21:16:28.635Z,46.90
2022-10-23T21:18:56.901Z,51.60
2022-10-23T21:21:24.848Z,58.70
2022-10-23T21:23:54.986Z,53.60
2022-10-23T21:26:24.284Z,56.40
2022-10-23T21:28:56.168Z,66.80
2022-10-23T21:31:27.826Z,66.10
2022-10-23T21:33:54.557Z,67.80
2022-10-23T21:36:24.153Z,62.70
2022-10-23T21:38:53.691Z,65.30
2022-10-23T21:41:24.059Z,63.60
2022-10-23T21:43:56.543Z,60.60
2022-10-23T21:46:24.615Z,63.00
2022-10-23T21:48:52.187Z,60.00
2022-10-23T21:51:29.553Z,57.60
2022-10-23T21:53:57.761Z,58.80
2022-10-23T21:56:30.556Z,63.10
2022-10-23T21:58:59.576Z,65.10
2022-10-23T22:01:27.310Z,54.80
2022-10-23T22:03:54.483Z,53.40
2022-10-23T22:06:25.695Z,56.10
2022-10-23T22:08:53.924Z,57.30
2022-10-23T22:11:20.893Z,66.00
2022-10-23T22:13:48.289Z,62.00
2022-10-23T22:16:16.229Z,64.50
2022-10-23T22:18:43.435Z,68.10
2022-10-23T22:21:13.210Z,147.30
2022-10-23T22:23:40.433Z,78.80
2022-10-23T22:26:10.023Z,90.10
2022-10-23T22:28:36.864Z,92.40
2022-10-23T22:31:03.561Z,87.30
2022-10-23T22:33:31.117Z,101.90
2022-10-23T22:36:02.480Z,99.50
2022-10-23T22:38:32.033Z,80.60
2022-10-23T22:41:02.039Z,149.70
2022-10-23T22:43:29.602Z,85.90
2022-10-23T22:46:13.249Z,68.30
2022-10-23T22:48:40.455Z,50.50
2022-10-23T22:51:09.141Z,56.50
2022-10-23T22:53:36.338Z,34.10
2022-10-23T22:56:07.427Z,38.00
2022-10-23T22:58:34.717Z,35.00
2022-10-23T23:01:05.890Z,34.30
2022-10-23T23:03:32.807Z,51.50
2022-10-23T23:05:59.542Z,71.00
2022-10-23T23:08:26.253Z,63.30
2022-10-23T23:10:54.590Z,82.00
2022-10-23T23:13:21.657Z,73.00
2022-10-23T23:15:48.420Z,70.00
2022-10-23T23:18:15.181Z,47.10
2022-10-23T23:20:42.089Z,95.50
2022-10-23T23:23:09.693Z,231.90
2022-10-23T23:25:49.433Z,196.00
2022-10-23T23:28:22.527Z,142.10
2022-10-23T23:30:49.654Z,68.50
2022-10-23T23:33:23.919Z,95.10
2022-10-23T23:35:50.629Z,46.40
2022-10-23T23:38:17.282Z,46.50
2022-10-23T23:40:51.717Z,42.30
2022-10-23T23:43:18.682Z,66.60
2022-10-23T23:45:45.881Z,56.80
2022-10-23T23:48:12.621Z,47.80
2022-10-23T23:50:39.351Z,45.70
2022-10-23T23:53:06.025Z,90.00
2022-10-23T23:55:33.125Z,77.40
2022-10-23T23:57:59.874Z,63.60
